Time;durP1;ratioP1;P1;durP2;ratioP2;P2;SDS_P1;SDS_P2;PMS_P1;PMS_P2;Temp;Humidity;BMP_temperature;BMP_pressure;BME280_temperature;BME280_humidity;BME280_pressure;Samples;Min_cycle;Max_cycle;Signal;HPM_P1;HPM_P2
2022/07/27 00:01:38;;;;;;;2.85;1.20;;;;;;;22.59;40.38;98607.56;5071454;28;20031;-46
2022/07/27 00:04:04;;;;;;;7.32;0.93;;;;;;;22.44;41.22;98605.81;5071438;28;20025;-46
2022/07/27 00:06:30;;;;;;;1.55;0.88;;;;;;;22.45;41.04;98609.28;5071570;28;20059;-46
2022/07/27 00:08:55;;;;;;;9.18;1.52;;;;;;;22.45;40.71;98607.41;5070027;28;20024;-45
2022/07/27 00:11:21;;;;;;;8.73;1.15;;;;;;;22.31;41.39;98606.44;5071326;28;20088;-45
2022/07/27 00:13:47;;;;;;;5.15;1.13;;;;;;;22.38;41.27;98616.84;5070043;28;20033;-46
2022/07/27 00:16:13;;;;;;;6.15;1.10;;;;;;;22.38;41.28;98606.16;5074579;28;20028;-46
2022/07/27 00:18:39;;;;;;;2.67;1.05;;;;;;;22.35;41.21;98604.81;5075380;28;20100;-46
2022/07/27 00:21:05;;;;;;;7.70;1.65;;;;;;;22.39;41.21;98602.38;5073909;28;20562;-47
2022/07/27 00:23:30;;;;;;;5.35;1.42;;;;;;;22.35;41.32;98602.13;5075258;28;20021;-46
2022/07/27 00:25:56;;;;;;;6.47;1.00;;;;;;;22.18;41.55;98607.06;5063557;28;20054;-46
2022/07/27 00:28:22;;;;;;;7.78;1.88;;;;;;;22.19;42.16;98597.97;5057119;28;20081;-46
2022/07/27 00:30:48;;;;;;;3.67;1.00;;;;;;;22.41;41.20;98597.56;5075090;28;20021;-46
2022/07/27 00:33:13;;;;;;;2.05;1.05;;;;;;;22.39;41.11;98607.72;5057521;28;20021;-46
2022/07/27 00:35:39;;;;;;;4.63;1.15;;;;;;;22.24;41.52;98606.78;5057086;28;20494;-45
2022/07/27 00:38:04;;;;;;;8.02;1.00;;;;;;;22.14;41.56;98610.28;5056919;28;20040;-45
2022/07/27 00:40:30;;;;;;;5.28;1.27;;;;;;;22.09;41.80;98607.66;5074951;28;20029;-46
2022/07/27 00:42:56;;;;;;;5.40;1.40;;;;;;;22.06;42.02;98592.16;5056930;28;20025;-46
2022/07/27 00:45:21;;;;;;;6.00;1.13;;;;;;;22.06;41.95;98594.84;5056738;28;20470;-45
2022/07/27 00:47:47;;;;;;;6.30;1.50;;;;;;;22.04;41.84;98585.50;5056803;28;20032;-45
2022/07/27 00:50:13;;;;;;;5.65;1.38;;;;;;;22.07;41.79;98591.09;5074725;28;20029;-45
2022/07/27 00:52:41;;;;;;;12.95;1.40;;;;;;;22.07;41.94;98595.63;5074740;28;20024;-46
2022/07/27 00:55:07;;;;;;;5.68;1.33;;;;;;;22.02;42.27;98579.66;5074605;28;20024;-45
2022/07/27 00:57:33;;;;;;;6.85;0.95;;;;;;;21.86;42.45;98585.09;5056616;28;20025;-47
2022/07/27 00:59:59;;;;;;;5.68;1.05;;;;;;;21.77;42.47;98578.72;5056540;28;20029;-45
2022/07/27 01:02:27;;;;;;;6.63;1.38;;;;;;;21.79;42.49;98576.56;5056521;28;20082;-46
2022/07/27 01:04:53;;;;;;;3.72;1.00;;;;;;;21.74;42.74;98574.72;5056485;28;20086;-46
2022/07/27 01:07:20;;;;;;;8.02;1.20;;;;;;;21.68;42.98;98567.81;5056414;28;20024;-46
2022/07/27 01:09:58;;;;;;;5.05;1.05;;;;;;;21.61;43.07;98572.69;5056414;28;20127;-46
2022/07/27 01:12:30;;;;;;;5.55;1.33;;;;;;;21.53;43.51;98567.88;5056374;28;20510;-47
2022/07/27 01:14:57;;;;;;;7.05;1.17;;;;;;;21.60;43.37;98557.72;5056269;28;20430;-45
2022/07/27 01:17:24;;;;;;;4.32;1.35;;;;;;;21.64;43.21;98558.75;5056216;28;20024;-46
2022/07/27 01:19:50;;;;;;;6.03;1.20;;;;;;;21.65;43.23;98557.69;5056255;28;20082;-46
2022/07/27 01:22:16;;;;;;;8.07;1.17;;;;;;;21.68;43.26;98554.47;5074160;28;20094;-45
2022/07/27 01:24:42;;;;;;;4.97;1.20;;;;;;;21.65;43.23;98560.38;5055747;28;20056;-47
2022/07/27 01:27:11;;;;;;;9.57;1.80;;;;;;;21.70;43.48;98556.88;5055087;28;20048;-46
2022/07/27 01:29:37;;;;;;;4.05;1.30;;;;;;;21.83;43.03;98566.13;5074057;28;20078;-46
2022/07/27 01:32:03;;;;;;;18.27;1.80;;;;;;;21.96;43.02;98570.88;5055931;28;20053;-46
2022/07/27 01:34:32;;;;;;;8.20;1.23;;;;;;;21.99;42.75;98570.28;5055745;28;20147;-46
2022/07/27 01:37:01;;;;;;;9.85;1.23;;;;;;;21.93;42.75;98571.41;5074024;28;20024;-46
2022/07/27 01:39:27;;;;;;;10.73;1.98;;;;;;;21.82;43.01;98572.56;5073781;28;20379;-46
2022/07/27 01:41:53;;;;;;;7.10;1.38;;;;;;;21.82;43.20;98576.03;5039211;28;20023;-46
2022/07/27 01:44:19;;;;;;;13.10;2.38;;;;;;;21.77;43.38;98580.59;5073729;28;20090;-46
2022/07/27 01:46:44;;;;;;;13.48;1.70;;;;;;;21.76;43.56;98587.81;5073685;28;20485;-46
2022/07/27 01:49:10;;;;;;;4.47;1.33;;;;;;;21.72;43.66;98581.44;5055673;28;20035;-45
2022/07/27 01:51:36;;;;;;;5.97;1.05;;;;;;;21.70;43.32;98595.06;5073624;28;20123;-46
2022/07/27 01:54:02;;;;;;;3.03;1.42;;;;;;;21.62;43.32;98590.28;5055474;28;20055;-45
2022/07/27 01:56:27;;;;;;;8.45;1.52;;;;;;;21.56;43.93;98591.38;5055556;28;20058;-46
2022/07/27 01:58:54;;;;;;;6.35;1.50;;;;;;;21.71;43.60;98588.66;5055464;28;20053;-46
2022/07/27 02:01:20;;;;;;;2.35;1.23;;;;;;;21.88;43.38;98580.25;5073350;28;20064;-46
2022/07/27 02:03:48;;;;;;;7.47;1.75;;;;;;;21.97;43.29;98585.81;5073711;28;20520;-47
2022/07/27 02:06:14;;;;;;;7.25;1.40;;;;;;;22.09;43.22;98586.28;5055323;28;20086;-46
2022/07/27 02:08:40;;;;;;;8.80;1.63;;;;;;;22.22;43.04;98579.50;5055348;28;20039;-46
2022/07/27 02:13:49;;;;;;;8.65;2.30;;;;;;;22.32;42.51;98568.75;5073200;28;20038;-46
2022/07/27 02:16:17;;;;;;;13.10;1.65;;;;;;;22.31;42.88;98567.13;5055076;28;20461;-47
2022/07/27 02:18:44;;;;;;;5.20;1.55;;;;;;;22.33;42.71;98562.34;5073131;28;20024;-46
2022/07/27 02:21:09;;;;;;;2.63;1.20;;;;;;;22.31;42.36;98561.00;5055001;28;20066;-46
2022/07/27 02:23:37;;;;;;;9.73;1.60;;;;;;;22.33;42.64;98559.66;5072935;28;20033;-46
2022/07/27 02:26:04;;;;;;;6.30;1.33;;;;;;;22.31;42.39;98558.31;5040925;28;20044;-48
2022/07/27 02:28:30;;;;;;;4.95;1.30;;;;;;;22.27;42.23;98563.44;5034927;28;20031;-48
2022/07/27 02:30:56;;;;;;;10.30;1.65;;;;;;;22.30;42.33;98556.75;5035090;28;20025;-48
2022/07/27 02:33:21;;;;;;;6.00;1.50;;;;;;;22.29;42.03;98549.78;5034809;28;20562;-47
2022/07/27 02:35:47;;;;;;;3.80;1.23;;;;;;;22.16;42.37;98543.19;5052696;28;20025;-47
2022/07/27 02:38:13;;;;;;;3.97;1.30;;;;;;;22.15;42.65;98538.91;5052584;28;20029;-48
2022/07/27 02:40:39;;;;;;;15.13;2.42;;;;;;;22.07;42.99;98539.50;5034666;28;20025;-48
2022/07/27 02:43:04;;;;;;;7.80;1.30;;;;;;;22.11;42.56;98537.88;5052645;28;20021;-48
2022/07/27 02:45:30;;;;;;;9.18;1.60;;;;;;;22.07;42.65;98534.97;5052555;28;20380;-48
2022/07/27 02:47:55;;;;;;;8.40;1.90;;;;;;;22.05;42.83;98531.75;5052484;28;20441;-48
2022/07/27 02:50:24;;;;;;;7.90;1.67;;;;;;;21.96;42.92;98528.09;5052489;28;20025;-47
2022/07/27 02:52:50;;;;;;;5.15;1.52;;;;;;;21.92;43.30;98527.84;5052508;28;20025;-48
2022/07/27 02:55:15;;;;;;;6.20;1.65;;;;;;;21.89;43.27;98524.94;5052281;28;20033;-48
2022/07/27 02:57:41;;;;;;;4.72;1.63;;;;;;;21.77;43.59;98537.84;5052389;28;20104;-48
2022/07/27 03:00:11;;;;;;;6.40;1.45;;;;;;;21.71;43.69;98535.22;5052338;28;20056;-48
2022/07/27 03:02:37;;;;;;;5.05;1.45;;;;;;;21.53;43.85;98536.66;5052641;28;20059;-48
2022/07/27 03:05:04;;;;;;;4.75;1.17;;;;;;;21.37;44.39;98539.63;5052182;28;20107;-48
2022/07/27 03:07:30;;;;;;;2.35;1.30;;;;;;;21.32;44.66;98535.94;5052388;28;20048;-48
2022/07/27 03:09:56;;;;;;;3.25;1.27;;;;;;;21.23;44.93;98539.44;5034302;28;20502;-46
2022/07/27 03:12:21;;;;;;;10.77;1.38;;;;;;;21.13;45.21;98541.09;5052120;28;20044;-48
2022/07/27 03:14:47;;;;;;;8.25;1.48;;;;;;;21.13;45.14;98542.97;5052047;28;20393;-48
2022/07/27 03:17:12;;;;;;;7.53;1.38;;;;;;;21.11;45.13;98537.91;5052027;28;20049;-48
2022/07/27 03:19:38;;;;;;;8.68;1.33;;;;;;;21.11;44.99;98526.44;5052417;28;20032;-48
2022/07/27 03:22:04;;;;;;;3.78;1.25;;;;;;;21.12;45.33;98525.34;5034004;28;20023;-48
2022/07/27 03:24:29;;;;;;;3.17;1.30;;;;;;;21.23;45.14;98521.56;5052663;28;20037;-48
2022/07/27 03:26:55;;;;;;;4.45;1.30;;;;;;;21.43;44.71;98514.53;5053957;28;20119;-48
2022/07/27 03:29:21;;;;;;;6.78;1.23;;;;;;;21.52;44.49;98512.91;5053881;28;20036;-48
2022/07/27 03:31:46;;;;;;;7.85;1.42;;;;;;;21.49;44.19;98510.78;5071890;28;20023;-48
2022/07/27 03:34:12;;;;;;;14.32;2.03;;;;;;;21.45;44.25;98515.88;5053729;28;20030;-47
2022/07/27 03:36:38;;;;;;;5.30;1.30;;;;;;;21.57;44.46;98517.41;5053776;28;20406;-48
2022/07/27 03:39:03;;;;;;;11.45;1.63;;;;;;;21.54;44.27;98508.88;5071751;28;20039;-48
2022/07/27 03:41:29;;;;;;;6.28;2.03;;;;;;;21.39;44.63;98516.97;5071751;28;20033;-48
2022/07/27 03:43:58;;;;;;;6.78;1.38;;;;;;;21.27;44.57;98511.94;5071747;28;20043;-48
2022/07/27 03:46:23;;;;;;;7.70;1.50;;;;;;;21.12;44.93;98517.34;5053685;28;20444;-48
2022/07/27 03:48:49;;;;;;;13.57;2.00;;;;;;;20.87;45.17;98527.03;5053496;28;20123;-48
2022/07/27 03:51:14;;;;;;;8.20;1.63;;;;;;;20.65;45.96;98532.69;5053434;28;20029;-47
2022/07/27 03:53:40;;;;;;;9.10;1.40;;;;;;;20.40;46.27;98536.16;5071613;28;20024;-46
2022/07/27 03:56:06;;;;;;;4.68;1.40;;;;;;;20.26;46.60;98540.44;5053611;28;20017;-46
2022/07/27 03:58:32;;;;;;;18.58;1.60;;;;;;;20.08;47.14;98544.41;5053560;28;20036;-46
2022/07/27 04:00:57;;;;;;;16.27;2.40;;;;;;;20.06;47.96;98542.03;5071483;28;20030;-46
2022/07/27 04:03:23;;;;;;;9.73;1.85;;;;;;;20.19;47.88;98538.03;5071542;28;20031;-46
2022/07/27 04:05:48;;;;;;;15.27;1.85;;;;;;;20.38;47.43;98540.94;5053488;28;20035;-47
2022/07/27 04:08:16;;;;;;;7.38;1.38;;;;;;;20.57;47.09;98537.75;5071432;28;20071;-45
2022/07/27 04:10:42;;;;;;;7.68;1.67;;;;;;;20.55;46.64;98546.81;5071386;28;20034;-46
2022/07/27 04:13:10;;;;;;;7.25;1.83;;;;;;;20.50;47.18;98549.50;5071677;28;20037;-46
2022/07/27 04:15:36;;;;;;;4.05;1.83;;;;;;;20.38;47.16;98561.47;5053510;28;20031;-48
2022/07/27 04:18:01;;;;;;;10.43;1.60;;;;;;;20.26;47.84;98569.75;5071415;28;20099;-48
2022/07/27 04:20:27;;;;;;;11.85;2.40;;;;;;;20.24;47.63;98570.03;5071450;28;20490;-47
2022/07/27 04:22:53;;;;;;;10.82;1.80;;;;;;;20.12;47.71;98572.94;5053385;28;20020;-48
2022/07/27 04:25:18;;;;;;;12.63;1.80;;;;;;;19.94;47.97;98584.09;5045661;28;20060;-49
2022/07/27 04:27:44;;;;;;;4.90;1.33;;;;;;;19.82;48.77;98587.03;5033420;28;20017;-50
2022/07/27 04:30:11;;;;;;;11.18;1.85;;;;;;;19.83;48.21;98593.94;5033349;28;20032;-50
2022/07/27 04:32:36;;;;;;;12.93;2.58;;;;;;;19.79;48.75;98592.06;5051220;28;20051;-49
2022/07/27 04:35:02;;;;;;;14.20;3.10;;;;;;;19.85;48.99;98594.47;5033192;28;20029;-50
2022/07/27 04:37:29;;;;;;;9.10;1.77;;;;;;;20.01;49.10;98591.84;5051243;28;20021;-50
2022/07/27 04:39:57;;;;;;;11.40;2.30;;;;;;;20.21;48.95;98591.06;5051081;28;20021;-49
2022/07/27 04:42:23;;;;;;;12.02;2.45;;;;;;;20.42;48.35;98592.66;5033230;28;20395;-49
2022/07/27 04:44:49;;;;;;;13.02;2.08;;;;;;;20.58;47.96;98590.78;5051061;28;20434;-49
2022/07/27 04:47:15;;;;;;;11.40;2.13;;;;;;;20.95;47.33;98592.38;5051096;28;20013;-50
2022/07/27 04:49:40;;;;;;;8.55;1.83;;;;;;;21.83;45.52;98590.16;5051080;28;20021;-50
2022/07/27 04:52:06;;;;;;;18.65;2.08;;;;;;;22.73;43.37;98588.97;5051030;28;20029;-50
2022/07/27 04:54:31;;;;;;;15.68;2.55;;;;;;;23.47;41.66;98589.53;5050966;28;20028;-50
2022/07/27 04:56:57;;;;;;;7.50;1.63;;;;;;;24.05;40.51;98598.41;5050986;28;20104;-50
2022/07/27 04:59:23;;;;;;;12.70;1.63;;;;;;;24.51;39.16;98589.69;5033121;28;20490;-50
2022/07/27 05:01:48;;;;;;;30.27;4.65;;;;;;;24.88;38.45;98594.09;5033818;28;20524;-50
2022/07/27 05:04:14;;;;;;;18.65;2.92;;;;;;;25.16;38.21;98596.81;5054522;28;20025;-50
2022/07/27 05:06:40;;;;;;;5.05;1.38;;;;;;;25.36;37.46;98598.31;5054438;28;20499;-50
2022/07/27 05:09:05;;;;;;;40.53;5.20;;;;;;;25.38;37.63;98596.13;5036453;28;20037;-47
2022/07/27 05:11:31;;;;;;;80.72;7.03;;;;;;;25.25;37.54;98599.63;5054314;28;20025;-48
2022/07/27 05:13:57;;;;;;;49.80;5.57;;;;;;;25.24;37.62;98601.50;5036410;28;20032;-48
2022/07/27 05:16:22;;;;;;;18.25;2.28;;;;;;;25.36;37.00;98601.00;5036321;28;20032;-48
2022/07/27 05:18:48;;;;;;;31.38;3.63;;;;;;;25.66;36.84;98602.25;5036360;28;20043;-48
2022/07/27 05:21:14;;;;;;;32.47;4.20;;;;;;;26.27;35.98;98602.00;5054243;28;20482;-48
2022/07/27 05:23:39;;;;;;;21.50;3.05;;;;;;;26.83;34.39;98605.22;5054187;28;20024;-48
2022/07/27 05:26:05;;;;;;;40.40;4.40;;;;;;;27.33;33.61;98606.88;5060098;28;20087;-48
2022/07/27 05:28:31;;;;;;;50.45;5.00;;;;;;;27.88;33.14;98609.03;5074101;28;20021;-48
2022/07/27 05:30:56;;;;;;;32.67;3.72;;;;;;;28.24;32.16;98614.09;5072606;28;20460;-48
2022/07/27 05:33:22;;;;;;;16.88;2.88;;;;;;;28.60;31.32;98612.97;5074048;28;20555;-48
2022/07/27 05:35:48;;;;;;;37.58;4.20;;;;;;;28.90;31.12;98607.63;5072725;28;20021;-48
2022/07/27 05:38:13;;;;;;;22.52;2.72;;;;;;;29.07;30.51;98610.25;5072829;28;20044;-48
2022/07/27 05:40:40;;;;;;;16.08;2.90;;;;;;;29.44;29.84;98612.50;5072527;28;20047;-47
2022/07/27 05:43:05;;;;;;;15.07;2.83;;;;;;;29.93;29.40;98603.91;5073817;28;20024;-46
2022/07/27 05:45:31;;;;;;;12.48;1.67;;;;;;;30.37;28.72;98598.94;5072338;28;20033;-47
2022/07/27 05:47:59;;;;;;;29.80;3.25;;;;;;;30.82;27.89;98601.59;5072467;28;20021;-47
2022/07/27 05:50:25;;;;;;;14.95;1.90;;;;;;;31.08;27.28;98607.88;5073751;28;20032;-45
2022/07/27 05:52:51;;;;;;;15.60;2.38;;;;;;;31.43;26.99;98613.63;5072235;28;20090;-48
2022/07/27 05:55:17;;;;;;;17.40;2.05;;;;;;;31.90;26.23;98615.03;5072145;28;20107;-46
2022/07/27 05:57:42;;;;;;;14.88;2.25;;;;;;;32.11;26.00;98614.88;5073482;28;20363;-46
2022/07/27 06:00:10;;;;;;;12.43;2.50;;;;;;;32.36;25.52;98605.50;5073367;28;20409;-48
2022/07/27 06:02:35;;;;;;;12.77;1.80;;;;;;;32.47;25.41;98608.47;5073385;28;20025;-48
2022/07/27 06:05:01;;;;;;;11.75;2.13;;;;;;;32.47;25.11;98616.63;5073383;28;20028;-46
2022/07/27 06:10:12;;;;;;;7.30;1.50;;;;;;;32.95;24.88;98614.00;5072503;28;20039;-48
2022/07/27 06:12:40;;;;;;;7.70;1.45;;;;;;;32.91;25.01;98621.28;5071403;28;20021;-48
2022/07/27 06:15:08;;;;;;;13.15;2.13;;;;;;;33.26;24.62;98617.84;5071786;28;20111;-47
2022/07/27 06:17:34;;;;;;;18.27;2.38;;;;;;;33.47;24.48;98623.00;5071792;28;20024;-48
2022/07/27 06:20:00;;;;;;;11.32;2.38;;;;;;;33.64;23.76;98619.91;5071709;28;20405;-46
2022/07/27 06:22:25;;;;;;;16.23;2.35;;;;;;;33.77;23.39;98626.81;5073017;28;20024;-47
2022/07/27 06:24:51;;;;;;;10.60;1.75;;;;;;;33.69;23.86;98621.56;5072729;28;20483;-46
2022/07/27 06:27:17;;;;;;;14.48;1.70;;;;;;;33.59;23.40;98633.75;5054965;28;20549;-46
2022/07/27 06:29:42;;;;;;;9.95;1.95;;;;;;;33.90;23.53;98629.38;5054825;28;20068;-46
2022/07/27 06:32:08;;;;;;;9.38;1.52;;;;;;;34.40;22.87;98631.19;5054839;28;20032;-47
2022/07/27 06:34:34;;;;;;;12.73;1.70;;;;;;;34.56;22.32;98619.41;5054736;28;20129;-47
2022/07/27 06:36:59;;;;;;;9.48;1.50;;;;;;;34.33;22.32;98620.16;5072744;28;20119;-46
2022/07/27 06:39:26;;;;;;;11.98;1.65;;;;;;;34.37;22.80;98623.75;5072680;28;20040;-47
2022/07/27 06:41:52;;;;;;;5.05;1.45;;;;;;;34.63;22.78;98616.78;5054708;28;20513;-47
2022/07/27 06:44:17;;;;;;;12.32;1.88;;;;;;;35.11;22.17;98608.25;5054665;28;20029;-46
2022/07/27 06:46:43;;;;;;;6.10;1.33;;;;;;;35.54;21.49;98603.47;5072485;28;20401;-48
2022/07/27 06:49:09;;;;;;;7.57;1.50;;;;;;;35.91;21.21;98606.28;5072537;28;20067;-47
2022/07/27 06:51:35;;;;;;;9.05;1.45;;;;;;;36.07;20.66;98597.88;5072752;28;20035;-47
2022/07/27 06:54:00;;;;;;;8.50;1.40;;;;;;;36.08;20.52;98606.84;5054381;28;20021;-47
2022/07/27 06:56:26;;;;;;;11.65;1.48;;;;;;;36.06;21.10;98604.53;5072380;28;20478;-47
2022/07/27 06:58:52;;;;;;;8.52;2.00;;;;;;;36.16;20.63;98603.88;5072324;28;20020;-46
2022/07/27 07:01:17;;;;;;;13.38;2.05;;;;;;;36.54;20.30;98606.59;5072141;28;20026;-47
2022/07/27 07:03:43;;;;;;;6.85;1.08;;;;;;;36.84;20.36;98605.72;5072238;28;20078;-47
2022/07/27 07:06:09;;;;;;;11.38;1.50;;;;;;;36.99;20.08;98601.94;5072208;28;20028;-48
2022/07/27 07:08:35;;;;;;;7.20;1.45;;;;;;;37.08;19.46;98605.09;5072165;28;20025;-47
2022/07/27 07:11:00;;;;;;;7.93;1.10;;;;;;;37.16;19.78;98609.50;5054245;28;20021;-47
2022/07/27 07:13:26;;;;;;;8.85;1.48;;;;;;;37.24;19.40;98613.06;5072147;28;20047;-49
2022/07/27 07:15:52;;;;;;;9.35;1.27;;;;;;;37.25;19.50;98602.91;5054039;28;20452;-47
2022/07/27 07:18:18;;;;;;;7.93;1.48;;;;;;;37.30;19.27;98613.50;5072108;28;20078;-47
2022/07/27 07:20:44;;;;;;;19.25;1.80;;;;;;;37.36;19.10;98606.50;5071899;28;20452;-46
2022/07/27 07:23:10;;;;;;;8.00;1.48;;;;;;;37.26;19.22;98605.25;5054004;28;20090;-47
2022/07/27 07:25:37;;;;;;;5.63;1.42;;;;;;;37.19;19.37;98607.97;5043217;28;20045;-47
2022/07/27 07:28:03;;;;;;;14.10;1.85;;;;;;;36.77;19.77;98604.47;5051799;28;20486;-48
2022/07/27 07:30:30;;;;;;;6.50;1.38;;;;;;;36.32;20.06;98614.59;5051804;28;20036;-48
2022/07/27 07:32:56;;;;;;;8.10;1.85;;;;;;;35.98;20.33;98603.66;5051796;28;20017;-48
2022/07/27 07:35:22;;;;;;;4.90;0.98;;;;;;;35.74;20.41;98615.06;5033756;28;20383;-49
2022/07/27 07:37:48;;;;;;;13.02;1.60;;;;;;;35.69;20.93;98607.97;5033837;28;20024;-48
2022/07/27 07:40:13;;;;;;;12.90;1.92;;;;;;;35.40;20.98;98604.03;5051769;28;20021;-47
2022/07/27 07:43:08;;;;;;;15.45;2.25;;;;;;;35.10;21.82;98610.19;5051765;28;20585;-46
2022/07/27 07:45:36;;;;;;;7.30;1.15;;;;;;;35.01;21.53;98599.56;5030255;28;20044;-46
2022/07/27 07:48:04;;;;;;;20.17;2.78;;;;;;;35.27;21.28;98605.41;5051660;28;20029;-47
2022/07/27 07:50:30;;;;;;;14.52;2.30;;;;;;;35.66;21.05;98599.72;5051489;28;20033;-48
2022/07/27 07:52:56;;;;;;;28.08;3.38;;;;;;;36.39;20.38;98592.78;5017338;28;20028;-47
2022/07/27 07:55:27;;;;;;;7.10;1.27;;;;;;;36.76;19.51;98594.72;5051720;28;20167;-47
2022/07/27 07:57:53;;;;;;;7.65;1.52;;;;;;;36.68;19.58;98598.53;5033688;28;20028;-47
2022/07/27 08:00:20;;;;;;;13.00;1.98;;;;;;;36.33;20.18;98588.81;5051505;28;20032;-47
2022/07/27 08:02:52;;;;;;;11.15;1.55;;;;;;;36.50;19.95;98598.38;5051500;28;20021;-47
2022/07/27 08:05:19;;;;;;;14.45;1.88;;;;;;;36.97;19.58;98585.88;5051485;28;20033;-46
2022/07/27 08:07:45;;;;;;;9.52;1.80;;;;;;;37.26;19.31;98582.59;5033535;28;20021;-48
2022/07/27 08:10:12;;;;;;;30.58;2.67;;;;;;;37.38;19.31;98585.00;5033504;28;20032;-47
2022/07/27 08:12:42;;;;;;;12.45;1.75;;;;;;;37.49;18.67;98591.31;5051362;28;20024;-48
2022/07/27 08:15:10;;;;;;;12.00;2.33;;;;;;;37.79;18.90;98590.28;5033398;28;20064;-47
2022/07/27 08:17:36;;;;;;;6.68;1.42;;;;;;;38.16;17.60;98583.81;5051303;28;20032;-47
2022/07/27 08:20:02;;;;;;;8.85;1.40;;;;;;;38.39;17.17;98588.91;5051399;28;20037;-47
2022/07/27 08:22:28;;;;;;;5.63;1.20;;;;;;;38.81;17.61;98581.13;5051205;28;20111;-47
2022/07/27 08:24:54;;;;;;;4.85;1.35;;;;;;;39.40;17.26;98581.47;5055197;28;20179;-47
2022/07/27 08:27:20;;;;;;;10.82;2.33;;;;;;;39.64;16.07;98579.03;5071284;28;20486;-47
2022/07/27 08:29:45;;;;;;;7.13;1.33;;;;;;;40.11;15.82;98577.66;5071302;28;20045;-47
2022/07/27 08:32:11;;;;;;;10.60;1.70;;;;;;;40.10;15.80;98578.84;5071454;28;20096;-47
2022/07/27 08:34:37;;;;;;;9.63;1.75;;;;;;;40.28;15.68;98578.72;5053150;28;20499;-47
2022/07/27 08:37:03;;;;;;;10.65;1.60;;;;;;;40.56;15.17;98574.25;5073995;28;20024;-49
2022/07/27 08:39:29;;;;;;;14.10;2.03;;;;;;;40.09;15.53;98587.50;5074946;28;20032;-50
2022/07/27 08:41:59;;;;;;;11.15;1.42;;;;;;;39.59;15.48;98572.00;5056916;28;20020;-49
2022/07/27 08:44:28;;;;;;;37.17;2.85;;;;;;;38.78;16.15;98590.94;5074884;28;20031;-48
2022/07/27 08:46:56;;;;;;;15.57;1.70;;;;;;;38.59;16.38;98586.63;5075041;28;20020;-47
2022/07/27 08:49:22;;;;;;;7.40;1.23;;;;;;;38.65;15.75;98587.78;5056855;28;20457;-48
2022/07/27 08:51:49;;;;;;;10.07;1.60;;;;;;;38.67;16.54;98584.66;5056806;28;20025;-48
2022/07/27 08:54:15;;;;;;;5.82;1.25;;;;;;;38.78;16.31;98579.97;5074670;28;20043;-47
2022/07/27 08:56:42;;;;;;;9.82;1.70;;;;;;;38.72;15.82;98582.31;5074543;28;20024;-47
2022/07/27 08:59:10;;;;;;;10.48;1.33;;;;;;;38.62;15.69;98572.13;5074692;28;20035;-48
2022/07/27 09:01:37;;;;;;;14.15;1.50;;;;;;;38.49;16.06;98584.63;5074585;28;20023;-48
2022/07/27 09:04:03;;;;;;;6.95;1.23;;;;;;;38.58;16.34;98581.50;5056657;28;20031;-46
2022/07/27 09:06:44;;;;;;;4.60;1.25;;;;;;;38.81;16.55;98586.63;5056515;28;20095;-46
2022/07/27 09:09:11;;;;;;;10.20;1.25;;;;;;;39.09;15.69;98581.13;5074468;28;20086;-48
2022/07/27 09:11:37;;;;;;;13.50;1.60;;;;;;;39.17;15.91;98581.91;5039812;28;20490;-47
2022/07/27 09:14:05;;;;;;;11.70;1.30;;;;;;;39.21;15.77;98579.16;5074350;28;20031;-50
2022/07/27 09:16:33;;;;;;;12.48;1.10;;;;;;;38.90;15.26;98578.78;5074280;28;20017;-47
2022/07/27 09:19:09;;;;;;;7.75;1.20;;;;;;;38.60;15.52;98582.72;5074307;28;20055;-48
2022/07/27 09:21:36;;;;;;;18.08;1.52;;;;;;;38.38;15.47;98589.34;5074299;28;20033;-46
2022/07/27 09:24:14;;;;;;;7.38;1.00;;;;;;;38.05;15.04;98586.50;5056215;28;20021;-47
2022/07/27 09:26:41;;;;;;;17.15;1.90;;;;;;;38.14;15.73;98580.66;5074021;28;20071;-47
2022/07/27 09:29:10;;;;;;;17.38;2.63;;;;;;;38.63;15.83;98570.94;5074161;28;20489;-50
2022/07/27 09:31:45;;;;;;;22.02;2.30;;;;;;;38.62;15.51;98563.13;5074046;28;20398;-49
2022/07/27 09:34:15;;;;;;;8.98;1.42;;;;;;;38.90;14.94;98554.09;5073946;28;20027;-50
2022/07/27 09:36:52;;;;;;;15.63;1.38;;;;;;;38.66;15.01;98552.94;5073972;28;20031;-50
2022/07/27 09:39:20;;;;;;;4.53;0.90;;;;;;;38.28;15.21;98556.00;5073889;28;20075;-49
2022/07/27 09:42:00;;;;;;;6.85;1.27;;;;;;;38.12;15.32;98561.84;5074158;28;20028;-47
2022/07/27 09:44:40;;;;;;;19.23;2.20;;;;;;;37.89;15.63;98548.47;5073705;28;20051;-47
2022/07/27 09:47:28;;;;;;;10.57;1.40;;;;;;;37.75;15.77;98554.69;5073145;28;20028;-47
2022/07/27 09:50:16;;;;;;;9.45;1.20;;;;;;;37.70;15.73;98546.06;5056916;28;20032;-49
2022/07/27 09:52:43;;;;;;;10.43;1.40;;;;;;;38.26;14.80;98554.84;5055052;28;20037;-48
2022/07/27 09:55:09;;;;;;;15.23;1.55;;;;;;;38.72;15.43;98554.09;5073503;28;20025;-46
2022/07/27 09:57:55;;;;;;;10.48;1.27;;;;;;;39.11;15.27;98559.56;5073536;28;20449;-48
2022/07/27 10:00:22;;;;;;;9.88;1.27;;;;;;;39.46;14.62;98538.72;5055624;28;20043;-49
2022/07/27 10:02:51;;;;;;;14.70;2.88;;;;;;;39.02;15.17;98556.47;5073514;28;20024;-49
2022/07/27 10:05:20;;;;;;;14.52;2.08;;;;;;;38.94;15.00;98549.38;5073415;28;20164;-50
2022/07/27 10:07:46;;;;;;;7.97;1.45;;;;;;;38.42;15.61;98562.69;5073347;28;20028;-50
2022/07/27 10:10:14;;;;;;;11.13;1.83;;;;;;;38.23;15.17;98559.13;5073259;28;20027;-50
2022/07/27 10:12:43;;;;;;;5.43;1.20;;;;;;;38.32;15.17;98545.84;5073168;28;20040;-47
2022/07/27 10:15:10;;;;;;;7.43;1.13;;;;;;;38.06;15.46;98548.94;5073317;28;20036;-48
2022/07/27 10:17:40;;;;;;;16.25;1.80;;;;;;;38.00;16.12;98550.47;5073103;28;20031;-49
2022/07/27 10:20:11;;;;;;;16.90;2.70;;;;;;;38.29;15.74;98545.81;5073094;28;20025;-49
2022/07/27 10:22:57;;;;;;;4.80;1.23;;;;;;;38.48;15.02;98550.94;5073079;28;20103;-49
2022/07/27 10:25:26;;;;;;;15.13;2.17;;;;;;;38.12;16.08;98550.13;5072755;28;20060;-49
2022/07/27 10:28:11;;;;;;;13.77;2.03;;;;;;;38.09;16.07;98548.13;5055023;28;20017;-50
2022/07/27 10:30:38;;;;;;;9.52;1.52;;;;;;;37.93;16.33;98551.19;5072835;28;20108;-47
2022/07/27 10:33:44;;;;;;;18.70;2.03;;;;;;;37.66;16.45;98553.47;5054850;28;20035;-47
2022/07/27 10:36:37;;;;;;;13.75;1.30;;;;;;;38.30;15.60;98539.19;5054820;28;20052;-48
2022/07/27 10:39:05;;;;;;;17.00;2.38;;;;;;;38.19;15.58;98539.16;5054992;28;20133;-47
2022/07/27 10:41:38;;;;;;;12.95;1.20;;;;;;;38.46;15.90;98542.31;5072631;28;20060;-50
2022/07/27 10:44:13;;;;;;;9.50;1.25;;;;;;;39.12;15.48;98541.13;5072631;28;20032;-51
2022/07/27 10:46:53;;;;;;;13.52;1.75;;;;;;;39.32;15.57;98528.53;5072517;28;20024;-51
2022/07/27 10:49:24;;;;;;;11.70;1.38;;;;;;;39.31;14.72;98548.16;5072539;28;20032;-51
2022/07/27 10:51:54;;;;;;;8.50;1.38;;;;;;;39.18;14.94;98550.53;5072524;28;20055;-51
2022/07/27 10:54:25;;;;;;;18.95;1.90;;;;;;;39.03;15.16;98541.53;5072373;28;20032;-50
2022/07/27 10:56:53;;;;;;;16.42;1.95;;;;;;;39.00;15.21;98547.03;5072463;28;20119;-50
2022/07/27 10:59:43;;;;;;;6.22;1.67;;;;;;;38.82;15.08;98547.03;5072562;28;20130;-50
2022/07/27 11:02:17;;;;;;;5.22;1.13;;;;;;;38.32;15.52;98543.09;5072354;28;20040;-51
2022/07/27 11:04:47;;;;;;;7.05;1.42;;;;;;;38.37;15.80;98547.41;5072350;28;20036;-50
2022/07/27 11:07:21;;;;;;;14.07;1.75;;;;;;;38.36;16.09;98530.16;5072189;28;20020;-50
2022/07/27 11:09:49;;;;;;;13.13;1.40;;;;;;;38.13;16.06;98546.19;5072240;28;20024;-50
2022/07/27 11:12:18;;;;;;;12.18;1.42;;;;;;;38.20;15.88;98538.00;5054163;28;20036;-49
2022/07/27 11:14:46;;;;;;;3.80;0.95;;;;;;;38.50;16.06;98539.59;5054017;28;20119;-49
2022/07/27 11:17:13;;;;;;;7.43;1.00;;;;;;;38.48;15.41;98534.50;5054104;28;20024;-49
2022/07/27 11:19:40;;;;;;;9.63;1.17;;;;;;;38.64;15.83;98525.13;5071925;28;20450;-51
2022/07/27 11:22:06;;;;;;;7.20;1.40;;;;;;;38.85;15.98;98524.31;5071980;28;20047;-51
2022/07/27 11:24:35;;;;;;;10.48;2.08;;;;;;;38.64;15.96;98530.59;5071683;28;20494;-52
2022/07/27 11:27:02;;;;;;;9.05;1.80;;;;;;;38.34;15.53;98520.78;5071991;28;20028;-51
2022/07/27 11:29:37;;;;;;;7.90;1.58;;;;;;;38.07;16.05;98523.09;5071855;28;20012;-49
2022/07/27 11:32:03;;;;;;;5.70;1.40;;;;;;;37.75;16.63;98521.00;5053941;28;20048;-50
2022/07/27 11:34:34;;;;;;;9.48;1.35;;;;;;;37.50;16.63;98518.16;5053776;28;20398;-50
2022/07/27 11:37:04;;;;;;;16.90;1.48;;;;;;;37.25;17.09;98516.13;5053897;28;20089;-48